createdAt,value
2022-08-20T00:00:02.941Z,100.00
2022-08-20T00:02:42.317Z,100.00
2022-08-20T00:05:15.150Z,100.00
2022-08-20T00:07:44.960Z,100.00
2022-08-20T00:10:15.108Z,100.00
2022-08-20T00:12:47.384Z,100.00
2022-08-20T00:15:21.752Z,100.00
2022-08-20T00:17:52.421Z,100.00
2022-08-20T00:20:27.542Z,100.00
2022-08-20T00:22:57.340Z,100.00
2022-08-20T00:25:31.524Z,100.00
2022-08-20T00:28:03.753Z,100.00
2022-08-20T00:30:34.440Z,100.00
2022-08-20T00:33:06.484Z,100.00
2022-08-20T00:35:40.743Z,100.00
2022-08-20T00:38:10.484Z,100.00
2022-08-20T00:40:43.211Z,100.00
2022-08-20T00:43:29.744Z,100.00
2022-08-20T00:45:59.996Z,100.00
2022-08-20T00:48:33.236Z,100.00
2022-08-20T00:51:08.516Z,100.00
2022-08-20T00:53:39.025Z,100.00
2022-08-20T00:56:10.371Z,100.00
2022-08-20T00:58:42.919Z,100.00
2022-08-20T01:01:12.719Z,100.00
2022-08-20T01:03:42.612Z,100.00
2022-08-20T01:06:14.922Z,100.00
2022-08-20T01:08:44.954Z,100.00
2022-08-20T01:11:16.766Z,100.00
2022-08-20T01:13:48.550Z,100.00
2022-08-20T01:16:23.212Z,100.00
2022-08-20T01:18:53.456Z,100.00
2022-08-20T01:21:28.311Z,100.00
2022-08-20T01:24:00.718Z,100.00
2022-08-20T01:26:34.614Z,100.00
2022-08-20T01:29:08.021Z,100.00
2022-08-20T01:31:40.888Z,100.00
2022-08-20T01:34:12.864Z,100.00
2022-08-20T01:36:46.456Z,100.00
2022-08-20T01:39:19.206Z,100.00
2022-08-20T01:41:58.196Z,100.00
2022-08-20T01:44:28.047Z,100.00
2022-08-20T01:47:00.958Z,100.00
2022-08-20T01:49:34.850Z,100.00
2022-08-20T01:52:09.576Z,100.00
2022-08-20T01:54:39.271Z,100.00
2022-08-20T01:57:15.550Z,100.00
2022-08-20T01:59:45.927Z,100.00
2022-08-20T02:02:15.984Z,100.00
2022-08-20T02:04:45.669Z,100.00
2022-08-20T02:07:18.319Z,100.00
2022-08-20T02:09:48.972Z,100.00
2022-08-20T02:12:21.499Z,100.00
2022-08-20T02:14:53.827Z,100.00
2022-08-20T02:17:25.564Z,100.00
2022-08-20T02:19:57.634Z,100.00
2022-08-20T02:22:30.219Z,100.00
2022-08-20T02:25:00.012Z,100.00
2022-08-20T02:27:33.709Z,100.00
2022-08-20T02:30:05.126Z,100.00
2022-08-20T02:32:36.187Z,100.00
2022-08-20T02:35:08.726Z,100.00
2022-08-20T02:37:39.233Z,100.00
2022-08-20T02:40:11.313Z,100.00
2022-08-20T02:42:44.175Z,100.00
2022-08-20T02:45:19.057Z,100.00
2022-08-20T02:47:49.714Z,100.00
2022-08-20T02:50:22.384Z,100.00
2022-08-20T02:52:52.469Z,100.00
2022-08-20T02:55:25.328Z,100.00
2022-08-20T02:58:01.019Z,100.00
2022-08-20T03:00:38.157Z,100.00
2022-08-20T03:03:10.326Z,100.00
2022-08-20T03:05:41.465Z,100.00
2022-08-20T03:08:12.965Z,100.00
2022-08-20T03:10:44.290Z,100.00
2022-08-20T03:13:18.520Z,100.00
2022-08-20T03:15:53.239Z,100.00
2022-08-20T03:18:26.278Z,100.00
2022-08-20T03:20:55.901Z,100.00
2022-08-20T03:23:25.646Z,100.00
2022-08-20T03:25:55.700Z,100.00
2022-08-20T03:28:28.047Z,100.00
2022-08-20T03:30:59.442Z,100.00
2022-08-20T03:33:29.963Z,100.00
2022-08-20T03:35:59.589Z,100.00
2022-08-20T03:38:33.203Z,100.00
2022-08-20T03:41:03.723Z,100.00
2022-08-20T03:46:23.410Z,100.00
2022-08-20T03:48:56.727Z,100.00
2022-08-20T03:51:34.397Z,100.00
2022-08-20T03:54:22.771Z,100.00
2022-08-20T03:56:52.489Z,100.00
2022-08-20T03:59:24.899Z,100.00
2022-08-20T04:01:55.077Z,100.00
2022-08-20T04:04:24.984Z,100.00
2022-08-20T04:06:55.825Z,100.00
2022-08-20T04:09:25.621Z,100.00
2022-08-20T04:12:00.947Z,100.00
2022-08-20T04:14:33.363Z,100.00
2022-08-20T04:17:07.750Z,100.00
2022-08-20T04:19:38.873Z,100.00
2022-08-20T04:22:08.638Z,100.00
2022-08-20T04:24:38.544Z,100.00
2022-08-20T04:27:08.699Z,100.00
2022-08-20T04:29:44.545Z,100.00
2022-08-20T04:32:17.997Z,100.00
2022-08-20T04:34:51.433Z,100.00
2022-08-20T04:37:24.002Z,100.00
2022-08-20T04:40:06.210Z,100.00
2022-08-20T04:42:35.996Z,100.00
2022-08-20T04:45:10.106Z,100.00
2022-08-20T04:47:39.836Z,100.00
2022-08-20T04:50:11.866Z,100.00
2022-08-20T04:52:41.899Z,100.00
2022-08-20T04:55:12.945Z,100.00
2022-08-20T04:57:42.634Z,100.00
2022-08-20T05:00:18.543Z,100.00
2022-08-20T05:02:48.288Z,100.00
2022-08-20T05:05:18.584Z,100.00
2022-08-20T05:07:49.163Z,100.00
2022-08-20T05:10:20.623Z,100.00
2022-08-20T05:12:56.900Z,100.00
2022-08-20T05:15:29.602Z,100.00
2022-08-20T05:18:04.739Z,100.00
2022-08-20T05:20:39.877Z,100.00
2022-08-20T05:23:11.449Z,100.00
2022-08-20T05:25:41.844Z,100.00
2022-08-20T05:28:13.567Z,100.00
2022-08-20T05:30:47.908Z,100.00
2022-08-20T05:33:19.994Z,100.00
2022-08-20T05:35:52.379Z,100.00
2022-08-20T05:38:24.248Z,100.00
2022-08-20T05:40:54.982Z,100.00
2022-08-20T05:43:24.944Z,100.00
2022-08-20T05:45:58.152Z,100.00
2022-08-20T05:48:28.511Z,100.00
2022-08-20T05:50:58.644Z,100.00
2022-08-20T05:53:28.568Z,100.00
2022-08-20T05:55:58.861Z,100.00
2022-08-20T05:58:32.895Z,100.00
2022-08-20T06:01:05.484Z,100.00
2022-08-20T06:03:47.650Z,100.00
2022-08-20T06:06:38.843Z,100.00
2022-08-20T06:09:07.381Z,100.00
2022-08-20T06:11:37.556Z,100.00
2022-08-20T06:14:07.622Z,100.00
2022-08-20T06:16:39.935Z,100.00
2022-08-20T06:19:27.265Z,100.00
2022-08-20T06:22:02.280Z,100.00
2022-08-20T06:24:38.477Z,100.00
2022-08-20T06:27:09.220Z,100.00
2022-08-20T06:29:39.087Z,100.00
2022-08-20T06:32:11.516Z,100.00
2022-08-20T06:34:50.173Z,100.00
2022-08-20T06:37:23.238Z,100.00
2022-08-20T06:39:58.057Z,100.00
2022-08-20T06:42:27.841Z,100.00
2022-08-20T06:44:59.601Z,100.00
2022-08-20T06:47:31.820Z,100.00
2022-08-20T06:50:01.542Z,100.00
2022-08-20T06:52:51.726Z,100.00
2022-08-20T06:55:21.363Z,100.00
2022-08-20T06:57:55.425Z,100.00
2022-08-20T07:00:25.290Z,100.00
2022-08-20T07:02:58.092Z,100.00
2022-08-20T07:05:27.887Z,100.00
2022-08-20T07:07:57.851Z,100.00
2022-08-20T07:12:57.353Z,100.00
2022-08-20T07:15:28.515Z,100.00
2022-08-20T07:18:04.146Z,100.00
2022-08-20T07:20:36.688Z,100.00
2022-08-20T07:23:06.851Z,100.00
2022-08-20T07:25:37.160Z,100.00
2022-08-20T07:28:08.952Z,100.00
2022-08-20T07:30:56.797Z,100.00
2022-08-20T07:33:31.610Z,100.00
2022-08-20T07:36:04.029Z,100.00
2022-08-20T07:38:35.341Z,100.00
2022-08-20T07:41:07.392Z,100.00
2022-08-20T07:43:37.808Z,100.00
2022-08-20T07:46:09.354Z,100.00
2022-08-20T07:48:46.295Z,100.00
2022-08-20T07:51:17.902Z,100.00
2022-08-20T07:53:48.585Z,100.00
2022-08-20T07:56:21.357Z,100.00
2022-08-20T07:58:52.412Z,100.00
2022-08-20T08:01:25.690Z,100.00
2022-08-20T08:03:58.165Z,100.00
2022-08-20T08:06:31.146Z,100.00
2022-08-20T08:09:06.006Z,100.00
2022-08-20T08:11:37.912Z,100.00
2022-08-20T08:16:39.916Z,100.00
2022-08-20T08:19:14.336Z,100.00
2022-08-20T08:21:44.283Z,100.00
2022-08-20T08:24:19.989Z,100.00
2022-08-20T08:26:52.537Z,100.00
2022-08-20T08:29:22.372Z,100.00
2022-08-20T08:31:52.041Z,100.00
2022-08-20T08:34:25.336Z,100.00
2022-08-20T08:36:55.550Z,100.00
2022-08-20T08:39:25.795Z,100.00
2022-08-20T08:42:05.233Z,100.00
2022-08-20T08:44:38.682Z,100.00
2022-08-20T08:47:14.534Z,100.00
2022-08-20T08:49:48.045Z,100.00
2022-08-20T08:52:23.056Z,100.00
2022-08-20T08:54:56.928Z,100.00
2022-08-20T08:57:29.064Z,100.00
2022-08-20T09:00:04.840Z,100.00
2022-08-20T09:02:36.320Z,100.00
2022-08-20T09:05:17.788Z,100.00
2022-08-20T09:07:51.015Z,100.00
2022-08-20T09:10:23.550Z,100.00
2022-08-20T09:12:53.560Z,100.00
2022-08-20T09:15:24.118Z,100.00
2022-08-20T09:17:53.875Z,100.00
2022-08-20T09:20:27.120Z,100.00
2022-08-20T09:22:57.374Z,100.00
2022-08-20T09:25:27.394Z,100.00
2022-08-20T09:27:57.211Z,100.00
2022-08-20T09:30:26.939Z,100.00
2022-08-20T09:32:56.957Z,100.00
2022-08-20T09:35:29.464Z,100.00
2022-08-20T09:37:59.311Z,100.00
2022-08-20T09:40:29.628Z,100.00
2022-08-20T09:42:59.429Z,100.00
2022-08-20T09:45:29.273Z,100.00
2022-08-20T09:47:59.015Z,100.00
2022-08-20T09:50:35.800Z,100.00
2022-08-20T09:53:07.233Z,100.00
2022-08-20T09:55:38.699Z,100.00
2022-08-20T09:58:11.772Z,100.00
2022-08-20T10:00:41.658Z,100.00
2022-08-20T10:03:11.451Z,100.00
2022-08-20T10:05:43.827Z,100.00
2022-08-20T10:08:14.802Z,100.00
2022-08-20T10:10:44.686Z,100.00
2022-08-20T10:13:15.407Z,100.00
2022-08-20T10:15:45.621Z,100.00
2022-08-20T10:18:15.304Z,100.00
2022-08-20T10:20:47.659Z,100.00
2022-08-20T10:23:17.415Z,100.00
2022-08-20T10:25:47.119Z,100.00
2022-08-20T10:28:16.880Z,100.00
2022-08-20T10:30:47.030Z,100.00
2022-08-20T10:33:16.707Z,100.00
2022-08-20T10:35:49.069Z,100.00
2022-08-20T10:38:20.308Z,100.00
2022-08-20T10:40:52.550Z,100.00
2022-08-20T10:43:22.657Z,100.00
2022-08-20T10:45:53.815Z,100.00
2022-08-20T10:48:24.706Z,100.00
2022-08-20T10:50:57.087Z,99.48
2022-08-20T10:53:26.748Z,99.80
2022-08-20T10:55:57.632Z,100.00
2022-08-20T10:58:37.523Z,98.54
2022-08-20T11:01:09.826Z,98.36
2022-08-20T11:03:39.559Z,99.44
2022-08-20T11:06:11.956Z,100.00
2022-08-20T11:08:42.868Z,97.61
2022-08-20T11:11:12.699Z,98.50
2022-08-20T11:13:42.499Z,99.49
2022-08-20T11:16:12.328Z,97.67
2022-08-20T11:18:47.669Z,99.12
2022-08-20T11:21:20.190Z,96.09
2022-08-20T11:23:49.943Z,95.10
2022-08-20T11:26:24.197Z,94.16
2022-08-20T11:28:54.134Z,96.26
2022-08-20T11:31:23.836Z,93.06
2022-08-20T11:33:53.577Z,93.23
2022-08-20T11:36:26.761Z,95.21
2022-08-20T11:38:56.433Z,92.84
2022-08-20T11:41:26.177Z,96.13
2022-08-20T11:44:19.951Z,92.36
2022-08-20T11:46:45.469Z,92.06
2022-08-20T11:49:15.286Z,93.57
2022-08-20T11:51:49.522Z,91.93
2022-08-20T11:54:20.121Z,92.16
2022-08-20T11:56:51.009Z,92.15
2022-08-20T11:59:20.998Z,92.85
2022-08-20T12:02:02.845Z,91.71
2022-08-20T12:04:35.016Z,92.58
2022-08-20T12:07:14.208Z,92.49
2022-08-20T12:09:51.193Z,93.92
2022-08-20T12:12:23.460Z,88.47
2022-08-20T12:14:53.219Z,89.43
2022-08-20T12:17:25.474Z,89.19
2022-08-20T12:19:57.148Z,87.09
2022-08-20T12:22:29.502Z,87.84
2022-08-20T12:24:59.540Z,88.54
2022-08-20T12:27:30.910Z,86.93
2022-08-20T12:30:03.043Z,85.42
2022-08-20T12:32:34.052Z,87.82
2022-08-20T12:35:03.813Z,85.87
2022-08-20T12:37:36.731Z,87.11
2022-08-20T12:40:09.659Z,86.13
2022-08-20T12:42:39.880Z,83.36
2022-08-20T12:45:11.181Z,84.65
2022-08-20T12:47:45.020Z,85.03
2022-08-20T12:50:16.942Z,84.83
2022-08-20T12:52:50.342Z,88.39
2022-08-20T12:55:22.090Z,84.88
2022-08-20T12:57:53.917Z,83.71
2022-08-20T13:00:26.398Z,82.54
2022-08-20T13:02:57.758Z,82.62
2022-08-20T13:05:27.796Z,81.13
2022-08-20T13:08:00.968Z,82.62
2022-08-20T13:10:32.301Z,80.64
2022-08-20T13:13:03.172Z,78.89
2022-08-20T13:15:33.202Z,80.96
2022-08-20T13:18:04.523Z,78.86
2022-08-20T13:20:35.002Z,78.76
2022-08-20T13:23:08.008Z,80.98
2022-08-20T13:25:37.807Z,79.80
2022-08-20T13:28:08.646Z,78.19
2022-08-20T13:30:41.004Z,78.43
2022-08-20T13:33:10.721Z,76.42
2022-08-20T13:35:40.420Z,78.61
2022-08-20T13:38:12.671Z,79.27
2022-08-20T13:40:42.398Z,77.21
2022-08-20T13:43:12.320Z,78.06
2022-08-20T13:45:42.326Z,77.43
2022-08-20T13:48:15.129Z,75.83
2022-08-20T13:50:46.831Z,75.96
2022-08-20T13:53:19.967Z,78.64
2022-08-20T13:55:49.591Z,81.19
2022-08-20T13:58:21.698Z,81.41
2022-08-20T14:00:52.274Z,79.21
2022-08-20T14:03:25.252Z,79.83
2022-08-20T14:05:55.495Z,81.07
2022-08-20T14:08:27.911Z,80.57
2022-08-20T14:10:57.625Z,83.46
2022-08-20T14:13:29.262Z,84.28
2022-08-20T14:15:59.162Z,81.96
2022-08-20T14:18:28.846Z,82.40
2022-08-20T14:20:58.549Z,81.89
2022-08-20T14:23:31.019Z,81.37
2022-08-20T14:26:06.560Z,83.21
2022-08-20T14:28:36.205Z,83.12
2022-08-20T14:31:05.928Z,81.26
2022-08-20T14:33:36.264Z,78.82
2022-08-20T14:36:07.424Z,81.10
2022-08-20T14:38:45.051Z,80.46
2022-08-20T14:41:14.875Z,80.66
2022-08-20T14:43:44.541Z,78.31
2022-08-20T14:46:14.409Z,79.42
2022-08-20T14:48:44.164Z,78.03
2022-08-20T14:51:13.855Z,75.31
2022-08-20T14:53:46.985Z,74.74
2022-08-20T14:56:18.012Z,77.07
2022-08-20T14:58:47.682Z,77.76
2022-08-20T15:01:17.424Z,76.16
2022-08-20T15:03:47.134Z,75.09
2022-08-20T15:06:21.799Z,76.02
2022-08-20T15:08:54.543Z,75.98
2022-08-20T15:11:24.230Z,74.48
2022-08-20T15:13:54.350Z,76.02
2022-08-20T15:16:24.113Z,77.06
2022-08-20T15:18:59.765Z,74.89
2022-08-20T15:21:29.850Z,76.68
2022-08-20T15:24:19.378Z,74.62
2022-08-20T15:26:49.665Z,73.70
2022-08-20T15:29:23.112Z,75.10
2022-08-20T15:31:53.358Z,75.52
2022-08-20T15:34:23.021Z,74.74
2022-08-20T15:36:52.678Z,73.98
2022-08-20T15:39:25.010Z,72.53
2022-08-20T15:41:54.668Z,76.14
2022-08-20T15:44:24.360Z,75.20
2022-08-20T15:46:54.096Z,75.10
2022-08-20T15:49:23.858Z,73.32
2022-08-20T15:51:53.580Z,72.61
2022-08-20T15:54:27.230Z,74.73
2022-08-20T15:57:04.375Z,74.40
2022-08-20T15:59:53.121Z,75.92
2022-08-20T16:02:51.061Z,77.47
2022-08-20T16:05:29.009Z,76.00
2022-08-20T16:08:08.690Z,75.48
2022-08-20T16:10:50.761Z,74.67
2022-08-20T16:13:27.984Z,74.86
2022-08-20T16:15:58.736Z,74.88
2022-08-20T16:18:31.120Z,74.60
2022-08-20T16:21:03.754Z,74.87
2022-08-20T16:23:35.790Z,73.91
2022-08-20T16:26:18.258Z,74.75
2022-08-20T16:28:55.838Z,74.40
2022-08-20T16:31:28.465Z,72.89
2022-08-20T16:34:04.946Z,72.92
2022-08-20T16:37:03.220Z,74.35
2022-08-20T16:39:40.316Z,73.20
2022-08-20T16:42:13.411Z,73.01
2022-08-20T16:44:45.755Z,74.01
2022-08-20T16:47:19.346Z,76.70
2022-08-20T16:49:52.676Z,75.96
2022-08-20T16:52:22.691Z,77.21
2022-08-20T16:54:52.441Z,78.16
2022-08-20T16:57:24.840Z,75.40
2022-08-20T17:00:01.010Z,74.37
2022-08-20T17:02:30.753Z,74.63
2022-08-20T17:05:06.517Z,75.57
2022-08-20T17:07:46.448Z,72.38
2022-08-20T17:10:23.247Z,73.57
2022-08-20T17:13:02.551Z,72.46
2022-08-20T17:15:35.134Z,72.77
2022-08-20T17:18:20.894Z,71.22
2022-08-20T17:20:50.687Z,72.21
2022-08-20T17:23:22.515Z,71.51
2022-08-20T17:26:01.077Z,71.52
2022-08-20T17:28:35.604Z,72.86
2022-08-20T17:31:05.687Z,73.05
2022-08-20T17:33:37.805Z,68.05
2022-08-20T17:36:13.058Z,70.05
2022-08-20T17:38:48.876Z,71.40
2022-08-20T17:41:21.726Z,73.68
2022-08-20T17:43:59.812Z,74.45
2022-08-20T17:46:30.693Z,75.09
2022-08-20T17:49:01.912Z,73.51
2022-08-20T17:51:36.653Z,72.87
2022-08-20T17:54:14.151Z,74.43
2022-08-20T17:56:46.290Z,71.54
2022-08-20T17:59:59.496Z,69.65
2022-08-20T18:02:12.894Z,71.46
2022-08-20T18:04:42.723Z,73.24
2022-08-20T18:07:17.931Z,72.38
2022-08-20T18:09:53.702Z,73.99
2022-08-20T18:12:33.950Z,73.18
2022-08-20T18:15:11.353Z,73.52
2022-08-20T18:18:09.475Z,76.89
2022-08-20T18:20:46.328Z,75.61
2022-08-20T18:23:19.099Z,74.96
2022-08-20T18:25:50.436Z,75.32
2022-08-20T18:28:25.437Z,75.86
2022-08-20T18:31:00.080Z,76.60
2022-08-20T18:33:32.458Z,76.35
2022-08-20T18:36:11.890Z,75.95
2022-08-20T18:38:44.153Z,76.13
2022-08-20T18:41:17.944Z,75.69
2022-08-20T18:43:47.755Z,76.65
2022-08-20T18:46:23.832Z,75.72
2022-08-20T18:48:55.619Z,74.99
2022-08-20T18:51:31.277Z,74.62
2022-08-20T18:54:01.244Z,76.69
2022-08-20T18:56:36.403Z,76.51
2022-08-20T18:59:09.599Z,78.46
2022-08-20T19:01:43.618Z,78.06
2022-08-20T19:04:29.651Z,79.38
2022-08-20T19:07:02.221Z,77.89
2022-08-20T19:09:55.360Z,78.92
2022-08-20T19:13:01.446Z,79.79
2022-08-20T19:15:34.138Z,82.28
2022-08-20T19:18:11.944Z,82.27
2022-08-20T19:20:44.369Z,82.06
2022-08-20T19:23:16.892Z,81.82
2022-08-20T19:25:54.417Z,82.15
2022-08-20T19:28:28.396Z,82.97
2022-08-20T19:30:58.658Z,82.87
2022-08-20T19:33:32.763Z,83.41
2022-08-20T19:36:16.252Z,85.08
2022-08-20T19:38:51.098Z,84.25
2022-08-20T19:41:30.859Z,84.13
2022-08-20T19:44:01.548Z,84.55
2022-08-20T19:46:33.431Z,84.68
2022-08-20T19:49:16.066Z,85.07
2022-08-20T19:51:54.418Z,85.73
2022-08-20T19:54:25.184Z,85.69
2022-08-20T19:56:59.311Z,86.64
2022-08-20T19:59:30.271Z,85.84
2022-08-20T20:02:02.850Z,86.92
2022-08-20T20:04:55.051Z,87.18
2022-08-20T20:07:27.779Z,86.97
2022-08-20T20:09:59.545Z,87.56
2022-08-20T20:12:29.202Z,87.98
2022-08-20T20:14:58.925Z,88.75
2022-08-20T20:17:34.523Z,88.52
2022-08-20T20:20:21.247Z,89.21
2022-08-20T20:22:53.961Z,90.31
2022-08-20T20:25:26.774Z,89.80
2022-08-20T20:27:57.986Z,89.62
2022-08-20T20:30:32.175Z,90.34
2022-08-20T20:33:03.835Z,89.65
2022-08-20T20:35:37.769Z,90.17
2022-08-20T20:38:10.591Z,89.74
2022-08-20T20:40:49.214Z,91.49
2022-08-20T20:43:26.800Z,90.39
2022-08-20T20:46:06.420Z,90.92
2022-08-20T20:48:46.094Z,91.51
2022-08-20T20:51:20.678Z,91.93
2022-08-20T20:53:54.899Z,91.82
2022-08-20T20:56:30.395Z,92.20
2022-08-20T20:59:05.291Z,92.60
2022-08-20T21:01:48.234Z,92.97
2022-08-20T21:04:21.312Z,93.22
2022-08-20T21:06:54.378Z,93.04
2022-08-20T21:09:25.354Z,93.44
2022-08-20T21:11:55.413Z,94.18
2022-08-20T21:14:25.142Z,94.12
2022-08-20T21:16:55.580Z,94.46
2022-08-20T21:19:25.347Z,94.73
2022-08-20T21:21:58.019Z,94.66
2022-08-20T21:24:27.785Z,94.08
2022-08-20T21:26:58.470Z,94.67
2022-08-20T21:29:32.452Z,94.65
2022-08-20T21:32:02.978Z,95.62
2022-08-20T21:34:32.790Z,95.32
2022-08-20T21:37:05.092Z,96.12
2022-08-20T21:39:34.875Z,95.24
2022-08-20T21:42:21.008Z,96.50
2022-08-20T21:44:56.312Z,96.58
2022-08-20T21:47:25.941Z,96.24
2022-08-20T21:49:55.962Z,95.85
2022-08-20T21:52:28.203Z,97.07
2022-08-20T21:54:58.271Z,96.89
2022-08-20T21:57:29.809Z,97.16
2022-08-20T22:00:01.875Z,96.18
2022-08-20T22:02:34.866Z,96.77
2022-08-20T22:05:05.257Z,96.65
2022-08-20T22:07:40.604Z,97.38
2022-08-20T22:10:11.555Z,96.72
2022-08-20T22:12:41.184Z,97.46
2022-08-20T22:15:11.953Z,96.78
2022-08-20T22:17:41.688Z,96.71
2022-08-20T22:20:12.756Z,98.31
2022-08-20T22:22:45.937Z,97.14
2022-08-20T22:25:15.980Z,97.51
2022-08-20T22:27:45.974Z,96.87
2022-08-20T22:30:16.268Z,98.63
2022-08-20T22:32:51.816Z,98.60
2022-08-20T22:35:22.111Z,97.35
2022-08-20T22:37:54.320Z,97.92
2022-08-20T22:40:25.345Z,98.42
2022-08-20T22:42:55.198Z,98.78
2022-08-20T22:45:25.055Z,98.05
2022-08-20T22:47:54.663Z,99.29
2022-08-20T22:50:25.784Z,99.97
2022-08-20T22:52:58.252Z,99.81
2022-08-20T22:55:28.239Z,100.00
2022-08-20T22:57:58.209Z,100.00
2022-08-20T23:00:28.164Z,100.00
2022-08-20T23:03:00.074Z,100.00
2022-08-20T23:05:32.398Z,100.00
2022-08-20T23:08:05.007Z,100.00
2022-08-20T23:10:35.666Z,100.00
2022-08-20T23:13:05.590Z,100.00
2022-08-20T23:15:37.045Z,100.00
2022-08-20T23:18:13.456Z,100.00
2022-08-20T23:20:44.077Z,100.00
2022-08-20T23:23:16.341Z,100.00
2022-08-20T23:25:46.092Z,100.00
2022-08-20T23:28:15.763Z,100.00
2022-08-20T23:30:45.493Z,100.00
2022-08-20T23:33:15.265Z,100.00
2022-08-20T23:35:45.586Z,100.00
2022-08-20T23:38:18.087Z,100.00
2022-08-20T23:40:47.764Z,100.00
2022-08-20T23:43:18.747Z,100.00
2022-08-20T23:45:48.687Z,100.00
2022-08-20T23:48:18.539Z,100.00
2022-08-20T23:50:48.220Z,100.00
2022-08-20T23:53:20.562Z,100.00
2022-08-20T23:55:50.266Z,100.00
2022-08-20T23:58:19.977Z,100.00
